Terminal Aerodrome Forecast
Issued by NWS Spokane, WA

Home | Current Version | Previous Version | Text Only | Print | Product List | Glossary On
Versions: 1 2 3 4 5 6 7 8 9 10 11 12 13 14 15 16 17 18 19 20 21 22 23
000
FTUS46 KOTX 140539
TAFLWS
TAF
KLWS 140539Z 1406/1506 35006KT P6SM SCT130 BKN200
     FM140800 VRB04KT P6SM VCTS SCT120CB OVC150
     FM141500 35005KT P6SM VCTS SCT080CB SCT120 BKN200 PROB30
      1415/1421 TS BKN090CB
     FM150000 30008KT P6SM SCT100 BKN200=

USA.gov is the U.S. government's official web portal to all federal, state and local government web resources and services.